createdAt,value
2022-09-15T00:01:56.885Z,2.10
2022-09-15T00:04:31.520Z,1.90
2022-09-15T00:07:06.581Z,1.90
2022-09-15T00:09:39.908Z,1.80
2022-09-15T00:12:17.670Z,1.90
2022-09-15T00:14:56.146Z,1.90
2022-09-15T00:17:32.612Z,1.80
2022-09-15T00:20:07.495Z,1.90
2022-09-15T00:22:41.105Z,1.70
2022-09-15T00:25:15.273Z,1.90
2022-09-15T00:27:48.507Z,1.90
2022-09-15T00:30:21.485Z,1.90
2022-09-15T00:32:55.233Z,2.20
2022-09-15T00:35:28.759Z,2.00
2022-09-15T00:38:02.360Z,1.90
2022-09-15T00:40:36.194Z,1.90
2022-09-15T00:43:13.076Z,1.70
2022-09-15T00:45:54.382Z,2.00
2022-09-15T00:48:28.329Z,1.80
2022-09-15T00:51:10.203Z,1.70
2022-09-15T00:53:51.556Z,1.70
2022-09-15T00:56:28.284Z,1.80
2022-09-15T00:59:16.856Z,1.80
2022-09-15T01:02:15.130Z,1.80
2022-09-15T01:04:49.193Z,1.80
2022-09-15T01:07:28.604Z,1.60
2022-09-15T01:10:06.746Z,1.70
2022-09-15T01:12:43.269Z,1.60
2022-09-15T01:15:17.730Z,1.70
2022-09-15T01:18:17.346Z,1.80
2022-09-15T01:21:10.762Z,1.80
2022-09-15T01:24:05.741Z,2.40
2022-09-15T01:26:56.351Z,2.10
2022-09-15T01:29:42.980Z,2.00
2022-09-15T01:32:43.432Z,2.00
2022-09-15T01:35:43.870Z,2.10
2022-09-15T01:38:41.254Z,2.00
2022-09-15T01:41:44.459Z,2.30
2022-09-15T01:44:31.414Z,1.90
2022-09-15T01:47:10.701Z,2.00
2022-09-15T01:49:55.533Z,2.00
2022-09-15T01:52:29.995Z,2.30
2022-09-15T01:55:10.154Z,2.10
2022-09-15T01:57:46.271Z,2.00
2022-09-15T02:00:23.132Z,2.30
2022-09-15T02:03:05.721Z,2.20
2022-09-15T02:05:50.873Z,2.10
2022-09-15T02:08:43.570Z,2.20
2022-09-15T02:11:30.412Z,2.00
2022-09-15T02:14:18.308Z,2.10
2022-09-15T02:17:02.152Z,2.00
2022-09-15T02:19:49.594Z,2.30
2022-09-15T02:22:28.922Z,2.10
2022-09-15T02:25:15.262Z,2.00
2022-09-15T02:27:53.321Z,1.90
2022-09-15T02:30:28.455Z,1.80
2022-09-15T02:33:08.929Z,2.00
2022-09-15T02:35:44.990Z,2.00
2022-09-15T02:38:18.557Z,1.90
2022-09-15T02:40:51.915Z,2.70
2022-09-15T02:43:25.272Z,2.00
2022-09-15T02:45:58.707Z,2.20
2022-09-15T02:48:42.253Z,2.50
2022-09-15T02:51:15.779Z,2.10
2022-09-15T02:53:49.075Z,2.10
2022-09-15T02:56:22.771Z,2.20
2022-09-15T02:58:56.122Z,2.30
2022-09-15T03:01:40.149Z,2.40
2022-09-15T03:04:14.364Z,2.10
2022-09-15T03:06:47.551Z,3.00
2022-09-15T03:09:20.451Z,2.10
2022-09-15T03:11:54.061Z,2.10
2022-09-15T03:14:28.210Z,2.20
2022-09-15T03:17:05.144Z,2.00
2022-09-15T03:19:41.330Z,2.10
2022-09-15T03:22:14.741Z,2.00
2022-09-15T03:24:48.550Z,1.90
2022-09-15T03:28:12.626Z,2.20
2022-09-15T03:30:19.438Z,2.10
2022-09-15T03:32:52.904Z,2.00
2022-09-15T03:35:26.167Z,2.00
2022-09-15T03:37:59.424Z,2.00
2022-09-15T03:40:34.280Z,2.20
2022-09-15T03:43:07.527Z,2.20
2022-09-15T03:45:41.965Z,2.70
2022-09-15T03:48:16.052Z,2.80
2022-09-15T03:50:49.969Z,2.60
2022-09-15T03:53:25.329Z,2.50
2022-09-15T03:56:13.659Z,2.40
2022-09-15T03:58:48.788Z,2.70
2022-09-15T04:01:24.260Z,2.60
2022-09-15T04:04:00.061Z,2.50
2022-09-15T04:06:36.543Z,2.20
2022-09-15T04:09:09.594Z,2.20
2022-09-15T04:11:43.523Z,2.30
2022-09-15T04:14:16.542Z,2.30
2022-09-15T04:16:50.014Z,2.10
2022-09-15T04:19:23.448Z,2.50
2022-09-15T04:21:56.687Z,2.40
2022-09-15T04:24:34.245Z,3.50
2022-09-15T04:27:07.936Z,3.10
2022-09-15T04:29:42.851Z,2.40
2022-09-15T04:32:16.704Z,2.70
2022-09-15T04:34:50.351Z,2.70
2022-09-15T04:37:23.848Z,2.60
2022-09-15T04:39:57.635Z,2.80
2022-09-15T04:42:32.312Z,2.40
2022-09-15T04:45:06.241Z,2.80
2022-09-15T04:47:39.903Z,2.40
2022-09-15T04:50:13.914Z,2.70
2022-09-15T04:52:47.644Z,3.90
2022-09-15T04:55:21.349Z,3.30
2022-09-15T04:57:56.074Z,4.20
2022-09-15T05:00:29.279Z,4.40
2022-09-15T05:03:03.342Z,4.30
2022-09-15T05:05:37.958Z,3.60
2022-09-15T05:08:11.757Z,3.50
2022-09-15T05:10:45.987Z,3.30
2022-09-15T05:13:19.467Z,2.80
2022-09-15T05:15:53.011Z,2.90
2022-09-15T05:18:27.054Z,2.60
2022-09-15T05:21:04.040Z,3.40
2022-09-15T05:23:37.985Z,3.10
2022-09-15T05:26:14.377Z,3.10
2022-09-15T05:28:48.230Z,2.80
2022-09-15T05:31:35.330Z,2.80
2022-09-15T05:34:09.677Z,2.50
2022-09-15T05:36:44.913Z,2.70
2022-09-15T05:39:18.401Z,2.40
2022-09-15T05:41:51.944Z,2.60
2022-09-15T05:44:27.281Z,2.70
2022-09-15T05:47:01.078Z,2.70
2022-09-15T05:49:34.700Z,2.70
2022-09-15T05:52:08.438Z,3.30
2022-09-15T05:54:42.225Z,2.60
2022-09-15T05:57:15.666Z,2.70
2022-09-15T05:59:49.569Z,2.90
2022-09-15T06:02:27.282Z,3.10
2022-09-15T06:05:00.336Z,2.90
2022-09-15T06:07:35.143Z,3.10
2022-09-15T06:10:09.945Z,2.80
2022-09-15T06:12:43.901Z,2.70
2022-09-15T06:15:18.627Z,2.60
2022-09-15T06:17:54.342Z,2.80
2022-09-15T06:20:29.435Z,2.60
2022-09-15T06:23:07.297Z,2.50
2022-09-15T06:25:40.598Z,2.50
2022-09-15T06:28:13.904Z,2.50
2022-09-15T06:30:50.111Z,2.40
2022-09-15T06:33:23.365Z,2.40
2022-09-15T06:35:56.906Z,2.70
2022-09-15T06:38:30.661Z,2.40
2022-09-15T06:41:04.000Z,2.70
2022-09-15T06:43:39.333Z,2.90
2022-09-15T06:46:15.723Z,2.80
2022-09-15T06:48:50.082Z,2.80
2022-09-15T06:51:26.312Z,3.50
2022-09-15T06:54:00.241Z,2.90
2022-09-15T06:56:43.612Z,4.80
2022-09-15T06:59:19.416Z,3.50
2022-09-15T07:02:04.940Z,3.50
2022-09-15T07:04:46.135Z,3.50
2022-09-15T07:07:20.876Z,3.20
2022-09-15T07:09:54.649Z,3.00
2022-09-15T07:12:28.765Z,2.80
2022-09-15T07:15:02.736Z,3.30
2022-09-15T07:17:38.107Z,3.10
2022-09-15T07:20:11.888Z,2.80
2022-09-15T07:22:46.000Z,3.50
2022-09-15T07:25:19.476Z,3.00
2022-09-15T07:27:53.206Z,4.10
2022-09-15T07:30:30.555Z,3.00
2022-09-15T07:33:07.880Z,2.60
2022-09-15T07:35:46.143Z,4.60
2022-09-15T07:38:23.165Z,3.70
2022-09-15T07:40:57.384Z,4.90
2022-09-15T07:43:34.208Z,3.70
2022-09-15T07:46:08.429Z,3.30
2022-09-15T07:48:42.079Z,2.70
2022-09-15T07:51:16.170Z,2.90
2022-09-15T07:53:51.062Z,2.70
2022-09-15T07:56:26.021Z,3.00
2022-09-15T07:59:00.297Z,4.30
2022-09-15T08:01:34.117Z,5.90
2022-09-15T08:04:07.541Z,5.40
2022-09-15T08:06:40.621Z,4.20
2022-09-15T08:09:18.278Z,3.10
2022-09-15T08:11:51.602Z,2.90
2022-09-15T08:14:25.064Z,3.20
2022-09-15T08:17:10.739Z,3.00
2022-09-15T08:19:46.791Z,3.00
2022-09-15T08:22:20.335Z,3.50
2022-09-15T08:24:53.268Z,2.90
2022-09-15T08:27:26.649Z,2.70
2022-09-15T08:30:00.399Z,2.90
2022-09-15T08:32:34.212Z,2.80
2022-09-15T08:35:09.454Z,2.80
2022-09-15T08:37:43.117Z,2.80
2022-09-15T08:40:30.916Z,3.30
2022-09-15T08:43:11.200Z,3.50
2022-09-15T08:45:59.193Z,4.30
2022-09-15T08:48:48.675Z,4.30
2022-09-15T08:51:33.052Z,4.10
2022-09-15T08:54:12.572Z,4.10
2022-09-15T08:56:47.124Z,4.70
2022-09-15T08:59:22.023Z,4.20
2022-09-15T09:02:17.397Z,3.20
2022-09-15T09:05:09.793Z,3.00
2022-09-15T09:08:01.794Z,2.80
2022-09-15T09:10:54.617Z,2.70
2022-09-15T09:14:01.890Z,2.70
2022-09-15T09:16:52.150Z,2.20
2022-09-15T09:19:40.220Z,2.30
2022-09-15T09:22:19.878Z,2.30
2022-09-15T09:24:58.682Z,2.40
2022-09-15T09:27:36.337Z,2.30
2022-09-15T09:30:21.544Z,2.20
2022-09-15T09:33:21.338Z,2.20
2022-09-15T09:35:55.187Z,2.50
2022-09-15T09:38:40.572Z,2.70
2022-09-15T09:41:37.968Z,2.30
2022-09-15T09:44:16.982Z,2.20
2022-09-15T09:46:50.845Z,2.30
2022-09-15T09:49:28.069Z,2.70
2022-09-15T09:52:04.159Z,2.60
2022-09-15T09:54:38.276Z,2.80
2022-09-15T09:57:17.294Z,2.50
2022-09-15T09:59:52.438Z,2.30
2022-09-15T10:02:30.045Z,2.10
2022-09-15T10:05:08.434Z,2.40
2022-09-15T10:07:47.466Z,2.30
2022-09-15T10:10:25.831Z,2.10
2022-09-15T10:12:59.975Z,2.10
2022-09-15T10:15:42.666Z,2.20
2022-09-15T10:18:40.711Z,2.50
2022-09-15T10:21:17.162Z,2.60
2022-09-15T10:23:50.749Z,2.20
2022-09-15T10:26:36.299Z,2.50
2022-09-15T10:29:18.044Z,3.00
2022-09-15T10:31:51.425Z,3.10
2022-09-15T10:34:32.921Z,3.20
2022-09-15T10:37:16.449Z,2.60
2022-09-15T10:40:00.626Z,2.10
2022-09-15T10:42:54.541Z,2.40
2022-09-15T10:45:41.358Z,2.00
2022-09-15T10:48:44.405Z,2.10
2022-09-15T10:51:28.660Z,2.30
2022-09-15T10:54:44.504Z,2.10
2022-09-15T10:57:54.845Z,2.40
2022-09-15T11:00:40.532Z,1.90
2022-09-15T11:03:41.988Z,2.40
2022-09-15T11:06:31.632Z,2.00
2022-09-15T11:09:20.786Z,1.90
2022-09-15T11:12:35.187Z,2.00
2022-09-15T11:15:24.812Z,2.10
2022-09-15T11:18:30.743Z,2.10
2022-09-15T11:21:09.286Z,2.00
2022-09-15T11:24:17.268Z,2.00
2022-09-15T11:27:00.343Z,2.00
2022-09-15T11:29:59.944Z,1.80
2022-09-15T11:32:40.924Z,1.80
2022-09-15T11:35:42.693Z,2.10
2022-09-15T11:38:38.845Z,1.80
2022-09-15T11:41:31.516Z,1.80
2022-09-15T11:44:33.095Z,1.90
2022-09-15T11:47:30.441Z,1.90
2022-09-15T11:50:14.831Z,1.90
2022-09-15T11:53:01.488Z,1.90
2022-09-15T11:55:42.502Z,2.40
2022-09-15T11:58:52.470Z,2.00
2022-09-15T12:01:32.245Z,2.00
2022-09-15T12:04:15.187Z,1.90
2022-09-15T12:07:21.840Z,2.00
2022-09-15T12:09:55.454Z,1.90
2022-09-15T12:12:30.785Z,1.70
2022-09-15T12:15:04.637Z,1.90
2022-09-15T12:18:06.721Z,1.80
2022-09-15T12:21:14.580Z,2.00
2022-09-15T12:24:12.178Z,1.80
2022-09-15T12:26:47.197Z,2.10
2022-09-15T12:29:29.409Z,2.10
2022-09-15T12:32:25.172Z,2.10
2022-09-15T12:35:13.393Z,2.00
2022-09-15T12:38:05.207Z,1.80
2022-09-15T12:40:40.901Z,2.60
2022-09-15T12:43:23.494Z,2.20
2022-09-15T12:46:00.858Z,2.30
2022-09-15T12:48:38.451Z,2.20
2022-09-15T12:51:13.745Z,2.70
2022-09-15T12:54:09.938Z,2.00
2022-09-15T12:56:52.228Z,2.00
2022-09-15T12:59:28.560Z,2.10
2022-09-15T13:02:03.009Z,1.90
2022-09-15T13:04:44.560Z,2.10
2022-09-15T13:10:16.408Z,2.10
2022-09-15T13:12:56.494Z,2.10
2022-09-15T13:15:30.697Z,2.00
2022-09-15T13:18:08.042Z,2.40
2022-09-15T13:20:45.703Z,2.10
2022-09-15T13:23:24.395Z,2.00
2022-09-15T13:26:01.895Z,2.40
2022-09-15T13:28:35.900Z,2.60
2022-09-15T13:31:13.329Z,2.50
2022-09-15T13:40:35.605Z,3.30
2022-09-15T13:43:40.807Z,3.00
2022-09-15T13:46:41.130Z,3.10
2022-09-15T13:49:37.216Z,4.30
2022-09-15T13:52:26.392Z,3.00
2022-09-15T13:55:22.019Z,3.20
2022-09-15T14:01:04.389Z,2.80
2022-09-15T14:03:46.230Z,1.70
2022-09-15T14:06:37.826Z,2.60
2022-09-15T14:09:17.807Z,2.20
2022-09-15T14:11:58.293Z,1.80
2022-09-15T14:14:34.600Z,2.50
2022-09-15T14:17:07.948Z,3.50
2022-09-15T14:19:44.293Z,2.30
2022-09-15T14:22:36.617Z,1.90
2022-09-15T14:27:50.334Z,1.70
2022-09-15T14:30:28.936Z,2.70
2022-09-15T14:33:04.633Z,2.20
2022-09-15T14:35:41.278Z,2.30
2022-09-15T14:38:26.150Z,2.00
2022-09-15T14:41:02.266Z,2.60
2022-09-15T14:43:43.402Z,1.70
2022-09-15T14:46:21.503Z,2.50
2022-09-15T14:48:54.582Z,1.50
2022-09-15T14:51:33.999Z,1.30
2022-09-15T14:54:15.702Z,1.50
2022-09-15T14:56:51.222Z,1.50
2022-09-15T14:59:33.307Z,1.80
2022-09-15T15:02:27.671Z,2.20
2022-09-15T15:05:13.540Z,2.10
2022-09-15T15:07:47.849Z,1.70
2022-09-15T15:10:35.661Z,2.20
2022-09-15T15:13:20.389Z,2.00
2022-09-15T15:15:53.755Z,1.70
2022-09-15T15:18:57.526Z,1.70
2022-09-15T15:21:43.604Z,1.20
2022-09-15T15:24:17.099Z,1.60
2022-09-15T15:26:52.383Z,1.20
2022-09-15T15:29:48.539Z,1.60
2022-09-15T15:32:25.747Z,2.10
2022-09-15T15:35:03.653Z,1.70
2022-09-15T15:37:37.628Z,1.80
2022-09-15T15:40:20.954Z,1.50
2022-09-15T15:43:00.125Z,1.30
2022-09-15T15:45:35.717Z,1.70
2022-09-15T15:48:13.145Z,1.60
2022-09-15T15:50:49.868Z,1.60
2022-09-15T15:53:22.717Z,1.50
2022-09-15T15:55:56.249Z,1.40
2022-09-15T15:58:28.931Z,1.70
2022-09-15T16:01:02.108Z,1.50
2022-09-15T16:03:35.673Z,1.50
2022-09-15T16:06:08.897Z,1.60
2022-09-15T16:08:45.177Z,1.60
2022-09-15T16:11:20.355Z,1.70
2022-09-15T16:13:53.917Z,1.90
2022-09-15T16:16:29.809Z,1.90
2022-09-15T16:19:03.069Z,1.80
2022-09-15T16:21:40.847Z,1.70
2022-09-15T16:24:17.789Z,2.00
2022-09-15T16:26:53.786Z,1.60
2022-09-15T16:29:32.071Z,2.00
2022-09-15T16:32:06.465Z,1.60
2022-09-15T16:34:39.359Z,1.90
2022-09-15T16:37:12.163Z,1.80
2022-09-15T16:39:48.107Z,1.90
2022-09-15T16:45:24.533Z,2.20
2022-09-15T16:47:57.907Z,2.10
2022-09-15T16:50:34.101Z,2.60
2022-09-15T16:53:09.861Z,2.30
2022-09-15T16:55:51.683Z,2.70
2022-09-15T17:00:58.488Z,1.70
2022-09-15T17:03:35.933Z,1.80
2022-09-15T17:06:14.436Z,1.50
2022-09-15T17:08:51.103Z,1.50
2022-09-15T17:11:28.397Z,1.30
2022-09-15T17:14:02.012Z,1.80
2022-09-15T17:16:35.848Z,1.90
2022-09-15T17:19:10.152Z,1.40
2022-09-15T17:21:44.867Z,1.50
2022-09-15T17:24:18.223Z,1.60
2022-09-15T17:26:51.707Z,1.50
2022-09-15T17:29:26.234Z,2.20
2022-09-15T17:32:07.280Z,1.60
2022-09-15T17:34:56.198Z,1.70
2022-09-15T17:37:30.353Z,1.60
2022-09-15T17:40:08.438Z,2.10
2022-09-15T17:42:42.794Z,1.80
2022-09-15T17:45:44.185Z,1.90
2022-09-15T17:48:19.616Z,1.80
2022-09-15T17:50:54.004Z,1.70
2022-09-15T17:53:29.093Z,1.70
2022-09-15T17:56:03.335Z,2.50
2022-09-15T17:58:36.021Z,2.40
2022-09-15T18:01:09.916Z,2.70
2022-09-15T18:03:49.267Z,2.60
2022-09-15T18:06:27.139Z,2.10
2022-09-15T18:09:01.280Z,2.40
2022-09-15T18:11:36.311Z,1.80
2022-09-15T18:14:11.542Z,1.60
2022-09-15T18:16:45.920Z,1.70
2022-09-15T18:19:21.585Z,1.80
2022-09-15T18:21:56.517Z,1.70
2022-09-15T18:24:29.845Z,2.60
2022-09-15T18:27:03.596Z,3.00
2022-09-15T18:29:37.201Z,3.00
2022-09-15T18:32:11.209Z,3.40
2022-09-15T18:34:44.461Z,3.40
2022-09-15T18:37:25.190Z,2.60
2022-09-15T18:40:01.313Z,2.30
2022-09-15T18:42:42.400Z,2.40
2022-09-15T18:45:21.527Z,2.30
2022-09-15T18:47:56.573Z,2.00
2022-09-15T18:50:56.622Z,2.30
2022-09-15T18:53:30.788Z,4.60
2022-09-15T18:56:11.250Z,3.80
2022-09-15T18:58:44.826Z,4.60
2022-09-15T19:01:18.678Z,3.20
2022-09-15T19:03:53.800Z,3.60
2022-09-15T19:06:27.213Z,2.70
2022-09-15T19:09:01.637Z,2.10
2022-09-15T19:11:35.611Z,1.80
2022-09-15T19:14:08.595Z,2.20
2022-09-15T19:16:57.218Z,2.00
2022-09-15T19:22:11.831Z,2.60
2022-09-15T19:24:45.179Z,3.30
2022-09-15T19:27:21.909Z,3.80
2022-09-15T19:29:57.334Z,3.30
2022-09-15T19:32:33.156Z,3.50
2022-09-15T19:35:06.743Z,3.90
2022-09-15T19:37:42.552Z,3.70
2022-09-15T19:40:17.823Z,3.30
2022-09-15T19:42:56.875Z,3.40
2022-09-15T19:45:31.304Z,3.50
2022-09-15T19:48:09.198Z,2.40
2022-09-15T19:50:43.282Z,2.60
2022-09-15T19:53:16.914Z,2.50
2022-09-15T19:55:59.414Z,2.70
2022-09-15T19:58:33.814Z,2.50
2022-09-15T20:01:08.414Z,2.80
2022-09-15T20:03:47.509Z,3.10
2022-09-15T20:06:32.534Z,2.80
2022-09-15T20:09:10.707Z,2.00
2022-09-15T20:11:48.932Z,1.90
2022-09-15T20:14:26.238Z,2.30
2022-09-15T20:17:02.556Z,2.10
2022-09-15T20:19:37.668Z,2.20
2022-09-15T20:22:10.656Z,2.10
2022-09-15T20:24:44.290Z,2.00
2022-09-15T20:27:19.513Z,2.00
2022-09-15T20:29:54.434Z,2.30
2022-09-15T20:32:29.962Z,2.20
2022-09-15T20:35:03.704Z,2.20
2022-09-15T20:37:37.768Z,2.00
2022-09-15T20:40:12.108Z,2.10
2022-09-15T20:42:51.020Z,2.20
2022-09-15T20:45:24.963Z,2.20
2022-09-15T20:48:01.212Z,2.10
2022-09-15T20:50:35.521Z,2.20
2022-09-15T20:53:09.211Z,2.00
2022-09-15T20:55:42.786Z,1.90
2022-09-15T20:58:16.253Z,2.10
2022-09-15T21:00:50.033Z,1.80
2022-09-15T21:03:29.130Z,2.20
2022-09-15T21:06:12.147Z,2.00
2022-09-15T21:08:50.699Z,2.10
2022-09-15T21:11:25.752Z,2.00
2022-09-15T21:14:03.413Z,2.10
2022-09-15T21:16:40.284Z,2.10
2022-09-15T21:19:16.281Z,1.90
2022-09-15T21:21:50.166Z,2.10
2022-09-15T21:24:24.500Z,2.00
2022-09-15T21:27:16.125Z,2.10
2022-09-15T21:29:49.463Z,2.00
2022-09-15T21:32:22.356Z,2.10
2022-09-15T21:34:56.416Z,1.90
2022-09-15T21:37:29.758Z,2.10
2022-09-15T21:40:03.699Z,2.10
2022-09-15T21:42:39.805Z,1.90
2022-09-15T21:45:13.069Z,2.20
2022-09-15T21:47:46.328Z,2.50
2022-09-15T21:50:19.631Z,2.60
2022-09-15T21:52:52.212Z,2.00
2022-09-15T21:55:25.630Z,1.80
2022-09-15T21:57:58.836Z,1.90
2022-09-15T22:00:35.064Z,1.80
2022-09-15T22:03:09.580Z,2.00
2022-09-15T22:05:47.686Z,1.90
2022-09-15T22:08:20.651Z,1.80
2022-09-15T22:11:00.306Z,2.00
2022-09-15T22:13:41.070Z,2.00
2022-09-15T22:16:20.848Z,2.40
2022-09-15T22:18:54.572Z,2.10
2022-09-15T22:21:32.955Z,2.20
2022-09-15T22:24:07.510Z,2.30
2022-09-15T22:26:42.101Z,2.00
2022-09-15T22:29:15.742Z,2.00
2022-09-15T22:31:49.327Z,2.10
2022-09-15T22:34:22.452Z,2.00
2022-09-15T22:36:55.019Z,2.00
2022-09-15T22:39:50.292Z,2.20
2022-09-15T22:42:22.258Z,2.10
2022-09-15T22:44:55.467Z,2.30
2022-09-15T22:47:29.702Z,2.20
2022-09-15T22:50:04.826Z,2.60
2022-09-15T22:55:20.829Z,2.40
2022-09-15T22:57:56.762Z,2.20
2022-09-15T23:00:30.023Z,2.30
2022-09-15T23:03:03.809Z,2.20
2022-09-15T23:05:38.517Z,2.10
2022-09-15T23:08:12.782Z,2.00
2022-09-15T23:10:47.324Z,2.40
2022-09-15T23:13:21.430Z,2.40
2022-09-15T23:15:55.102Z,2.50
2022-09-15T23:18:29.626Z,2.30
2022-09-15T23:21:10.990Z,2.60
2022-09-15T23:23:47.213Z,2.60
2022-09-15T23:26:22.736Z,2.50
2022-09-15T23:28:55.857Z,2.40
2022-09-15T23:31:28.625Z,2.30
2022-09-15T23:34:02.687Z,2.50
2022-09-15T23:36:35.981Z,2.20
2022-09-15T23:39:08.852Z,2.60
2022-09-15T23:41:42.651Z,2.50
2022-09-15T23:44:16.073Z,2.40
2022-09-15T23:49:42.933Z,2.10
2022-09-15T23:52:19.239Z,2.20
2022-09-15T23:54:55.004Z,2.50
2022-09-15T23:57:29.147Z,2.10
